Time;durP1;ratioP1;P1;durP2;ratioP2;P2;SDS_P1;SDS_P2;PMS_P1;PMS_P2;Temp;Humidity;BMP_temperature;BMP_pressure;BME280_temperature;BME280_humidity;BME280_pressure;Samples;Min_cycle;Max_cycle;Signal;HPM_P1;HPM_P2
2023/01/05 00:01:04;;;;;;;36.25;5.55;;;9.50;99.90;;;;;;5069891;28;20040;-66
2023/01/05 00:03:30;;;;;;;38.13;5.13;;;9.50;99.90;;;;;;5070852;28;20040;-67
2023/01/05 00:06:00;;;;;;;43.35;4.88;;;9.50;99.90;;;;;;5070403;28;20123;-67
2023/01/05 00:08:26;;;;;;;30.05;4.40;;;9.50;99.90;;;;;;5070228;28;20044;-67
2023/01/05 00:24:32;;;;;;;26.83;4.78;;;9.70;99.90;;;;;;5069619;28;20129;-66
2023/01/05 00:26:58;;;;;;;31.00;4.82;;;9.70;99.90;;;;;;5069824;28;20095;-66
2023/01/05 00:29:23;;;;;;;32.30;4.90;;;9.70;99.90;;;;;;5070118;28;20052;-67
2023/01/05 00:31:49;;;;;;;35.72;5.57;;;9.70;99.90;;;;;;5070225;28;20032;-66
2023/01/05 00:34:15;;;;;;;31.88;4.22;;;9.70;99.90;;;;;;5069354;28;20495;-67
2023/01/05 00:36:40;;;;;;;35.95;4.72;;;9.70;99.90;;;;;;5053586;28;20116;-66
2023/01/05 00:39:06;;;;;;;29.73;5.40;;;9.70;99.90;;;;;;5069915;28;20040;-66
2023/01/05 00:41:31;;;;;;;30.77;5.10;;;9.70;99.90;;;;;;5070057;28;20126;-67
2023/01/05 00:43:57;;;;;;;33.13;5.03;;;9.70;99.90;;;;;;5069590;28;20487;-66
2023/01/05 00:46:23;;;;;;;31.98;6.18;;;9.70;99.90;;;;;;5066411;28;20059;-67
2023/01/05 00:48:48;;;;;;;30.73;4.28;;;9.70;99.90;;;;;;5068801;28;20040;-67
2023/01/05 00:51:14;;;;;;;26.27;4.50;;;9.60;99.90;;;;;;5069224;28;20483;-66
2023/01/05 00:53:40;;;;;;;30.70;5.03;;;9.60;99.90;;;;;;5069516;28;20624;-66
2023/01/05 00:56:06;;;;;;;26.80;4.18;;;9.60;99.90;;;;;;5050856;28;20048;-66
2023/01/05 00:58:31;;;;;;;35.85;6.05;;;9.60;99.90;;;;;;5069177;28;20067;-66
2023/01/05 01:00:57;;;;;;;32.28;5.65;;;9.60;99.90;;;;;;5069103;28;20055;-66
2023/01/05 01:03:22;;;;;;;35.10;5.05;;;9.50;99.90;;;;;;5068666;28;20046;-66
2023/01/05 01:05:57;;;;;;;38.80;6.97;;;9.50;99.90;;;;;;5064470;28;20347;-66
2023/01/05 01:08:23;;;;;;;35.20;5.43;;;9.50;99.90;;;;;;5064981;28;20128;-66
2023/01/05 01:10:49;;;;;;;35.42;4.68;;;9.40;99.90;;;;;;5068927;28;20119;-66
2023/01/05 01:13:14;;;;;;;35.95;6.38;;;9.50;99.90;;;;;;5068903;28;20533;-66
2023/01/05 01:15:40;;;;;;;44.33;6.65;;;9.40;99.90;;;;;;5067736;28;20810;-66
2023/01/05 01:18:05;;;;;;;28.30;4.68;;;9.40;99.90;;;;;;5051821;28;20056;-66
2023/01/05 01:20:31;;;;;;;34.03;5.03;;;9.40;99.90;;;;;;5066750;28;20131;-66
2023/01/05 01:22:59;;;;;;;30.17;4.30;;;9.50;99.90;;;;;;5069139;28;20044;-67
2023/01/05 01:25:25;;;;;;;30.42;5.03;;;9.50;99.90;;;;;;5069032;28;20036;-66
2023/01/05 01:27:51;;;;;;;26.75;5.28;;;9.50;99.90;;;;;;5067721;28;20069;-66
2023/01/05 01:30:17;;;;;;;30.55;4.22;;;9.50;99.90;;;;;;5068297;28;20083;-66
2023/01/05 01:32:42;;;;;;;23.50;4.53;;;9.50;99.90;;;;;;5068028;28;20040;-67
2023/01/05 01:35:08;;;;;;;28.85;4.70;;;9.50;99.90;;;;;;5067396;28;20102;-66
2023/01/05 01:37:34;;;;;;;27.30;4.88;;;9.50;99.90;;;;;;5067053;28;20028;-66
2023/01/05 01:39:59;;;;;;;27.55;4.55;;;9.60;99.90;;;;;;5068526;28;20041;-65
2023/01/05 01:42:25;;;;;;;30.15;4.43;;;9.60;99.90;;;;;;5050446;28;20044;-67
2023/01/05 01:44:58;;;;;;;31.80;4.68;;;9.50;99.90;;;;;;5051909;28;20050;-66
2023/01/05 01:47:38;;;;;;;32.28;4.97;;;9.50;99.90;;;;;;5068045;28;20036;-66
2023/01/05 01:50:31;;;;;;;25.98;4.55;;;9.60;99.90;;;;;;5051246;28;20494;-66
2023/01/05 01:53:05;;;;;;;24.23;3.55;;;9.60;99.90;;;;;;5065545;28;20029;-66
2023/01/05 01:55:32;;;;;;;26.13;4.00;;;9.60;99.90;;;;;;5064688;28;20491;-66
2023/01/05 01:58:00;;;;;;;21.80;3.50;;;9.70;99.90;;;;;;5066314;28;20083;-66
2023/01/05 02:00:25;;;;;;;26.60;4.53;;;9.60;99.90;;;;;;5067269;28;20038;-67
2023/01/05 02:02:54;;;;;;;19.85;3.30;;;9.60;99.90;;;;;;5071857;28;20041;-67
2023/01/05 02:05:27;;;;;;;24.48;4.97;;;9.70;99.90;;;;;;5070230;28;20114;-67
2023/01/05 02:07:52;;;;;;;25.55;4.57;;;9.60;99.90;;;;;;5068761;28;20155;-66
2023/01/05 02:10:43;;;;;;;25.52;4.53;;;9.70;99.90;;;;;;5071673;28;20128;-66
2023/01/05 02:13:42;;;;;;;26.63;4.97;;;9.70;99.90;;;;;;5051964;28;20057;-66
2023/01/05 02:16:26;;;;;;;23.85;4.18;;;9.60;99.90;;;;;;5071216;28;20033;-66
2023/01/05 02:18:58;;;;;;;21.10;3.97;;;9.70;99.90;;;;;;5071690;28;20064;-67
2023/01/05 02:21:52;;;;;;;28.07;4.50;;;9.70;99.90;;;;;;5071352;28;20040;-67
2023/01/05 02:24:39;;;;;;;27.85;5.20;;;9.60;99.90;;;;;;5063626;28;20303;-67
2023/01/05 02:27:23;;;;;;;29.05;3.80;;;9.70;99.90;;;;;;5071889;28;20066;-66
2023/01/05 02:30:07;;;;;;;25.85;3.75;;;9.60;99.90;;;;;;5069539;28;20139;-66
2023/01/05 02:32:41;;;;;;;26.02;4.05;;;9.70;99.90;;;;;;5071209;28;20054;-66
2023/01/05 02:35:16;;;;;;;27.27;4.28;;;9.70;99.90;;;;;;5069994;28;20040;-66
2023/01/05 02:37:50;;;;;;;23.63;4.10;;;9.60;99.90;;;;;;5068912;28;20032;-66
2023/01/05 02:40:30;;;;;;;29.38;4.35;;;9.70;99.90;;;;;;5068694;28;20036;-67
2023/01/05 02:42:58;;;;;;;31.90;5.35;;;9.70;99.90;;;;;;5071450;28;20070;-66
2023/01/05 02:45:24;;;;;;;24.58;3.67;;;9.60;99.90;;;;;;5069222;28;20044;-67
2023/01/05 02:47:50;;;;;;;21.13;3.88;;;9.60;99.90;;;;;;5071364;28;20044;-66
2023/01/05 02:50:22;;;;;;;29.77;4.75;;;9.70;99.90;;;;;;5070059;28;20067;-66
2023/01/05 02:53:18;;;;;;;25.10;4.20;;;9.70;99.90;;;;;;5068495;28;20040;-66
2023/01/05 02:55:53;;;;;;;22.13;4.22;;;9.60;99.90;;;;;;5070273;28;20549;-66
2023/01/05 02:58:26;;;;;;;24.10;4.07;;;9.70;99.90;;;;;;5071882;28;20487;-66
2023/01/05 03:01:03;;;;;;;25.80;3.55;;;9.70;99.90;;;;;;5071776;28;20036;-66
2023/01/05 03:03:43;;;;;;;21.05;3.92;;;9.60;99.90;;;;;;5070754;28;20047;-66
2023/01/05 03:06:24;;;;;;;24.55;4.70;;;9.60;99.90;;;;;;5070734;28;20115;-66
2023/01/05 03:09:02;;;;;;;20.90;4.05;;;9.60;99.90;;;;;;5070455;28;20116;-67
2023/01/05 03:14:50;;;;;;;25.52;3.72;;;9.60;99.90;;;;;;5071573;28;20446;-66
2023/01/05 03:17:25;;;;;;;23.75;3.40;;;9.60;99.90;;;;;;5071409;28;20476;-67
2023/01/05 03:19:52;;;;;;;22.70;3.35;;;9.60;99.90;;;;;;5071886;28;20403;-66
2023/01/05 03:36:54;;;;;;;36.28;5.78;;;9.60;99.90;;;;;;5070467;28;20055;-67
2023/01/05 03:39:25;;;;;;;29.30;5.03;;;9.60;99.90;;;;;;5070778;28;20105;-66
2023/01/05 03:41:52;;;;;;;25.10;4.97;;;9.70;99.90;;;;;;5071374;28;20499;-66
2023/01/05 03:44:18;;;;;;;22.13;3.97;;;9.70;99.90;;;;;;5070627;28;20040;-66
2023/01/05 03:46:43;;;;;;;23.08;4.15;;;9.70;99.90;;;;;;5071320;28;20542;-66
2023/01/05 03:49:10;;;;;;;25.77;4.00;;;9.60;99.90;;;;;;5070981;28;20152;-67
2023/01/05 03:51:35;;;;;;;24.98;3.72;;;9.60;99.90;;;;;;5068991;28;20079;-66
2023/01/05 03:54:01;;;;;;;19.88;3.22;;;9.70;99.90;;;;;;5070681;28;20075;-67
2023/01/05 03:56:26;;;;;;;19.42;3.58;;;9.60;99.90;;;;;;5070136;28;20404;-67
2023/01/05 03:58:52;;;;;;;26.33;4.57;;;9.60;99.90;;;;;;5071016;28;20127;-65
2023/01/05 04:01:18;;;;;;;23.25;3.78;;;9.60;99.90;;;;;;5069778;28;20036;-66
2023/01/05 04:03:43;;;;;;;23.65;3.78;;;9.70;99.90;;;;;;5070710;28;20071;-67
2023/01/05 04:06:09;;;;;;;21.00;3.58;;;9.70;99.90;;;;;;5054173;28;20075;-66
2023/01/05 04:08:35;;;;;;;26.23;3.95;;;9.70;99.90;;;;;;5086080;28;20041;-66
2023/01/05 04:11:18;;;;;;;24.30;4.07;;;9.70;99.90;;;;;;5070463;28;20129;-67
2023/01/05 04:13:44;;;;;;;26.10;4.57;;;9.70;99.90;;;;;;5070659;28;20033;-67
2023/01/05 04:16:10;;;;;;;26.02;5.50;;;9.70;99.90;;;;;;5070832;28;20070;-66
2023/01/05 04:18:36;;;;;;;24.20;3.75;;;9.60;99.90;;;;;;5069961;28;20032;-67
2023/01/05 04:21:03;;;;;;;21.38;4.03;;;9.70;99.90;;;;;;5070766;28;20127;-66
2023/01/05 04:23:28;;;;;;;19.35;3.25;;;9.70;99.90;;;;;;5069001;28;20036;-67
2023/01/05 04:25:54;;;;;;;23.33;3.75;;;9.70;99.90;;;;;;5070188;28;20513;-66
2023/01/05 04:28:20;;;;;;;24.48;4.22;;;9.70;99.90;;;;;;5066949;28;20046;-66
2023/01/05 04:30:50;;;;;;;23.80;4.10;;;9.70;99.90;;;;;;5069769;28;20032;-66
2023/01/05 04:33:15;;;;;;;20.85;3.67;;;9.70;99.90;;;;;;5070008;28;20037;-66
2023/01/05 04:35:41;;;;;;;27.58;4.40;;;9.70;99.90;;;;;;5069631;28;20063;-67
2023/01/05 04:38:07;;;;;;;22.23;4.63;;;9.70;99.90;;;;;;5069860;28;20149;-67
2023/01/05 04:40:32;;;;;;;24.35;3.95;;;9.60;99.90;;;;;;5067711;28;20501;-66
2023/01/05 04:42:58;;;;;;;25.52;5.30;;;9.60;99.90;;;;;;5070106;28;20103;-66
2023/01/05 04:45:24;;;;;;;27.27;4.75;;;9.60;99.90;;;;;;5069470;28;20071;-65
2023/01/05 04:47:50;;;;;;;20.90;3.53;;;9.60;99.90;;;;;;5069493;28;20115;-66
2023/01/05 04:50:16;;;;;;;22.08;3.60;;;9.60;99.90;;;;;;5068267;28;20064;-66
2023/01/05 04:52:42;;;;;;;25.50;3.67;;;9.60;99.90;;;;;;5069354;28;20434;-66
2023/01/05 04:55:08;;;;;;;28.92;4.63;;;9.60;99.90;;;;;;5069541;28;20060;-67
2023/01/05 04:57:34;;;;;;;23.17;4.20;;;9.50;99.90;;;;;;5068345;28;20045;-66
2023/01/05 04:59:59;;;;;;;26.60;3.80;;;9.50;99.90;;;;;;5068946;28;20037;-67
2023/01/05 05:02:25;;;;;;;27.35;4.85;;;9.50;99.90;;;;;;5069790;28;20032;-66
2023/01/05 05:04:51;;;;;;;36.85;6.05;;;9.50;99.90;;;;;;5069387;28;20036;-66
2023/01/05 05:07:17;;;;;;;27.73;4.55;;;9.50;99.90;;;;;;5052805;28;20052;-66
2023/01/05 05:09:43;;;;;;;27.52;3.97;;;9.50;99.90;;;;;;5068646;28;20047;-67
2023/01/05 05:12:09;;;;;;;24.25;3.95;;;9.50;99.90;;;;;;5066114;28;20487;-66
2023/01/05 05:14:34;;;;;;;23.65;4.10;;;9.50;99.90;;;;;;5067375;28;20124;-67
2023/01/05 05:17:00;;;;;;;20.00;4.45;;;9.50;99.90;;;;;;5067787;28;20028;-66
2023/01/05 05:19:25;;;;;;;25.65;3.67;;;9.50;99.90;;;;;;5068340;28;20040;-66
2023/01/05 05:21:51;;;;;;;24.88;4.32;;;9.50;99.90;;;;;;5067754;28;20033;-66
2023/01/05 05:24:17;;;;;;;22.30;4.00;;;9.50;99.90;;;;;;5069510;28;20048;-67
2023/01/05 05:26:43;;;;;;;22.05;3.70;;;9.50;99.90;;;;;;5052585;28;20052;-66
2023/01/05 05:29:08;;;;;;;22.77;3.92;;;9.50;99.90;;;;;;5069217;28;20069;-66
2023/01/05 05:31:35;;;;;;;22.75;3.67;;;9.50;99.90;;;;;;5052341;28;20392;-66
2023/01/05 05:34:01;;;;;;;26.73;5.70;;;9.50;99.90;;;;;;5052491;28;20036;-66
2023/01/05 05:36:27;;;;;;;26.52;4.40;;;9.50;99.90;;;;;;5068951;28;20033;-67
2023/01/05 05:38:53;;;;;;;20.85;3.75;;;9.60;99.90;;;;;;5068876;28;20049;-66
2023/01/05 05:41:18;;;;;;;22.13;3.50;;;9.60;99.90;;;;;;5069193;28;20044;-66
2023/01/05 05:43:44;;;;;;;21.48;3.75;;;9.50;99.90;;;;;;5068666;28;20044;-66
2023/01/05 05:46:09;;;;;;;22.13;3.78;;;9.50;99.90;;;;;;5069420;28;20475;-67
2023/01/05 05:48:35;;;;;;;23.25;3.35;;;9.50;99.90;;;;;;5068881;28;20052;-67
2023/01/05 05:51:01;;;;;;;19.67;3.42;;;9.50;99.90;;;;;;5052325;28;20091;-66
2023/01/05 05:53:26;;;;;;;25.20;4.45;;;9.50;99.90;;;;;;5068766;28;20040;-66
2023/01/05 05:55:52;;;;;;;24.85;4.30;;;9.50;99.90;;;;;;5069431;28;20045;-66
2023/01/05 05:58:18;;;;;;;22.30;4.03;;;9.50;99.90;;;;;;5068877;28;20056;-67
2023/01/05 06:00:44;;;;;;;27.90;4.30;;;9.50;99.90;;;;;;5068940;28;20040;-67
2023/01/05 06:03:10;;;;;;;23.05;4.57;;;9.50;99.90;;;;;;5068685;28;20036;-67
2023/01/05 06:05:36;;;;;;;30.52;3.88;;;9.50;99.90;;;;;;5068897;28;21468;-67
2023/01/05 06:08:02;;;;;;;22.30;3.60;;;9.50;99.90;;;;;;5069893;28;20101;-67
2023/01/05 06:10:28;;;;;;;28.63;4.43;;;9.50;99.90;;;;;;5068896;28;20036;-66
2023/01/05 06:12:54;;;;;;;27.48;4.00;;;9.40;99.90;;;;;;5068695;28;20123;-66
2023/01/05 06:15:21;;;;;;;23.55;3.60;;;9.40;99.90;;;;;;5068305;28;20083;-67
2023/01/05 06:17:47;;;;;;;25.38;3.58;;;9.40;99.90;;;;;;5069079;28;20754;-66
2023/01/05 06:20:13;;;;;;;23.45;3.28;;;9.40;99.90;;;;;;5065079;28;20098;-67
2023/01/05 06:22:39;;;;;;;22.63;4.07;;;9.40;99.90;;;;;;5067282;28;20041;-67
2023/01/05 06:25:05;;;;;;;29.63;4.53;;;9.40;99.90;;;;;;5058775;28;20040;-66
2023/01/05 06:27:31;;;;;;;26.13;4.15;;;9.40;99.90;;;;;;5064593;28;20072;-67
2023/01/05 06:29:56;;;;;;;23.05;3.67;;;9.40;99.90;;;;;;5063444;28;20045;-66
2023/01/05 06:32:22;;;;;;;20.33;4.30;;;9.40;99.90;;;;;;5050476;28;20056;-66
2023/01/05 06:34:47;;;;;;;27.10;4.30;;;9.50;99.90;;;;;;5065538;28;20511;-66
2023/01/05 06:37:13;;;;;;;27.67;4.35;;;9.50;99.90;;;;;;5061967;28;20071;-67
2023/01/05 06:39:39;;;;;;;24.27;3.95;;;9.50;99.90;;;;;;5051443;28;20040;-66
2023/01/05 06:42:05;;;;;;;26.88;3.88;;;9.50;99.90;;;;;;5066457;28;20479;-66
2023/01/05 06:44:30;;;;;;;26.80;5.10;;;9.50;99.90;;;;;;5068318;28;20048;-66
2023/01/05 06:46:56;;;;;;;23.13;3.55;;;9.40;99.90;;;;;;5065026;28;20436;-66
2023/01/05 06:49:22;;;;;;;20.88;3.58;;;9.50;99.90;;;;;;5070101;28;20045;-66
2023/01/05 06:51:47;;;;;;;22.33;3.92;;;9.50;99.90;;;;;;5073062;28;20037;-66
2023/01/05 06:54:13;;;;;;;23.42;3.45;;;9.50;99.90;;;;;;5071812;28;20063;-65
2023/01/05 06:56:39;;;;;;;29.25;4.35;;;9.50;99.90;;;;;;5071682;28;20052;-66
2023/01/05 06:59:04;;;;;;;24.42;4.00;;;9.50;99.90;;;;;;5069252;28;20062;-66
2023/01/05 07:01:30;;;;;;;21.92;4.18;;;9.50;99.90;;;;;;5071829;28;20032;-67
2023/01/05 07:03:55;;;;;;;23.23;4.05;;;9.50;99.90;;;;;;5071821;28;20131;-66
2023/01/05 07:06:21;;;;;;;27.02;3.92;;;9.50;99.90;;;;;;5070585;28;20048;-66
2023/01/05 07:08:48;;;;;;;18.13;3.50;;;9.50;99.90;;;;;;5069479;28;20044;-66
2023/01/05 07:11:13;;;;;;;20.65;3.92;;;9.50;99.90;;;;;;5071512;28;20047;-66
2023/01/05 07:13:39;;;;;;;22.38;3.45;;;9.50;99.90;;;;;;5071512;28;20044;-66
2023/01/05 07:16:05;;;;;;;21.10;4.68;;;9.50;99.90;;;;;;5069193;28;20071;-65
2023/01/05 07:18:31;;;;;;;23.77;3.40;;;9.50;99.90;;;;;;5070426;28;20036;-66
2023/01/05 07:20:59;;;;;;;25.75;4.32;;;9.50;99.90;;;;;;5069804;28;20429;-66
2023/01/05 07:23:25;;;;;;;21.45;4.47;;;9.50;99.90;;;;;;5069335;28;20824;-66
2023/01/05 07:25:50;;;;;;;19.85;3.28;;;9.50;99.90;;;;;;5054877;28;20115;-66
2023/01/05 07:28:16;;;;;;;18.42;3.28;;;9.50;99.90;;;;;;5071151;28;20480;-66
2023/01/05 07:30:42;;;;;;;20.40;3.05;;;9.50;99.90;;;;;;5069715;28;20075;-66
2023/01/05 07:33:07;;;;;;;27.23;3.80;;;9.50;99.90;;;;;;5070508;28;20086;-66
2023/01/05 07:35:33;;;;;;;29.20;5.15;;;9.50;99.90;;;;;;5065062;28;20047;-66
2023/01/05 07:37:59;;;;;;;21.15;3.70;;;9.40;99.90;;;;;;5068828;28;20510;-66
2023/01/05 07:40:24;;;;;;;19.27;3.38;;;9.40;99.90;;;;;;5070562;28;20098;-66
2023/01/05 07:42:52;;;;;;;22.33;3.15;;;9.40;99.90;;;;;;5052924;28;20045;-66
2023/01/05 07:45:18;;;;;;;21.30;4.68;;;9.40;99.90;;;;;;5071563;28;20044;-66
2023/01/05 07:47:44;;;;;;;29.50;4.47;;;9.40;99.90;;;;;;5072349;28;20042;-66
2023/01/05 07:50:10;;;;;;;23.05;3.53;;;9.40;99.90;;;;;;5071383;28;20043;-67
2023/01/05 07:52:37;;;;;;;28.85;3.97;;;9.40;99.90;;;;;;5071155;28;20032;-66
2023/01/05 07:55:04;;;;;;;24.35;3.22;;;9.30;99.90;;;;;;5070998;28;20056;-66
2023/01/05 07:57:30;;;;;;;22.92;3.80;;;9.30;99.90;;;;;;5070951;28;20040;-66
2023/01/05 07:59:56;;;;;;;27.15;4.38;;;9.30;99.90;;;;;;5070951;28;20094;-66
2023/01/05 08:02:22;;;;;;;28.05;3.78;;;9.30;99.90;;;;;;5070923;28;20042;-66
2023/01/05 08:04:47;;;;;;;27.58;3.97;;;9.30;99.90;;;;;;5070681;28;20127;-66
2023/01/05 08:07:14;;;;;;;22.75;4.32;;;9.30;99.90;;;;;;5071114;28;20513;-66
2023/01/05 08:12:26;;;;;;;30.35;4.20;;;9.30;99.90;;;;;;5068599;28;20047;-66
2023/01/05 08:14:51;;;;;;;23.08;3.30;;;9.30;99.90;;;;;;5069976;28;20044;-66
2023/01/05 08:17:17;;;;;;;25.83;3.20;;;9.30;99.90;;;;;;5070574;28;20086;-66
2023/01/05 08:19:43;;;;;;;27.85;4.72;;;9.30;99.90;;;;;;5053479;28;20084;-66
2023/01/05 08:22:08;;;;;;;29.83;4.78;;;9.30;99.90;;;;;;5070556;28;20407;-66
2023/01/05 08:24:34;;;;;;;26.52;3.92;;;9.30;99.90;;;;;;5070151;28;20040;-66
2023/01/05 08:26:59;;;;;;;27.15;3.70;;;9.30;99.90;;;;;;5053381;28;20052;-67
2023/01/05 08:29:25;;;;;;;24.95;3.85;;;9.30;99.90;;;;;;5071364;28;20028;-66
2023/01/05 08:31:51;;;;;;;22.38;3.85;;;9.30;99.90;;;;;;5070217;28;20048;-67
2023/01/05 08:34:16;;;;;;;22.27;4.00;;;9.40;99.90;;;;;;5070056;28;20047;-66
2023/01/05 08:36:42;;;;;;;21.17;4.55;;;9.30;99.90;;;;;;5070280;28;20522;-66
2023/01/05 08:39:09;;;;;;;23.40;4.45;;;9.30;99.90;;;;;;5069810;28;20119;-66
2023/01/05 08:41:37;;;;;;;26.17;3.63;;;9.40;99.90;;;;;;5069954;28;20032;-66
2023/01/05 08:44:11;;;;;;;24.15;4.30;;;9.40;99.90;;;;;;5069882;28;20106;-66
2023/01/05 08:46:37;;;;;;;24.95;4.32;;;9.30;99.90;;;;;;5070152;28;20041;-67
2023/01/05 08:49:06;;;;;;;20.63;3.72;;;9.40;99.90;;;;;;5053580;28;20048;-66
2023/01/05 08:51:32;;;;;;;22.13;3.33;;;9.40;99.90;;;;;;5070058;28;20036;-67
2023/01/05 08:53:58;;;;;;;24.42;2.97;;;9.40;99.90;;;;;;5070001;28;20041;-66
2023/01/05 08:56:25;;;;;;;23.60;3.67;;;9.40;99.90;;;;;;5069825;28;20048;-66
2023/01/05 08:58:54;;;;;;;24.33;3.53;;;9.40;99.90;;;;;;5069626;28;20094;-66
2023/01/05 09:01:23;;;;;;;25.10;4.68;;;9.50;99.90;;;;;;5070011;28;20043;-66
2023/01/05 09:03:49;;;;;;;21.92;3.47;;;9.50;99.90;;;;;;5069855;28;20428;-66
2023/01/05 09:06:14;;;;;;;18.15;3.63;;;9.50;99.90;;;;;;5069860;28;20127;-66
2023/01/05 09:08:41;;;;;;;21.17;2.83;;;9.50;99.90;;;;;;5069733;28;20040;-66
2023/01/05 09:11:17;;;;;;;22.42;3.35;;;9.60;99.90;;;;;;5068916;28;20098;-66
2023/01/05 09:13:49;;;;;;;24.40;3.50;;;9.60;99.90;;;;;;5052714;28;20399;-66
2023/01/05 09:16:18;;;;;;;21.95;3.63;;;9.60;99.90;;;;;;5070119;28;20068;-67
2023/01/05 09:18:44;;;;;;;22.48;3.40;;;9.60;99.90;;;;;;5069759;28;20033;-66
2023/01/05 09:21:11;;;;;;;18.90;3.40;;;9.60;99.90;;;;;;5069745;28;20032;-66
2023/01/05 09:23:37;;;;;;;26.23;3.53;;;9.60;99.90;;;;;;5069460;28;20029;-66
2023/01/05 09:26:04;;;;;;;22.02;4.60;;;9.60;99.90;;;;;;5069178;28;20036;-66
2023/01/05 09:28:30;;;;;;;22.20;3.67;;;9.60;99.90;;;;;;5069416;28;20040;-66
2023/01/05 09:30:56;;;;;;;24.00;4.78;;;9.60;99.90;;;;;;5069309;28;20032;-66
2023/01/05 09:33:21;;;;;;;20.27;3.03;;;9.60;99.90;;;;;;5069314;28;20059;-66
2023/01/05 09:35:55;;;;;;;23.85;3.47;;;9.60;99.90;;;;;;5052998;28;20040;-66
2023/01/05 09:38:22;;;;;;;20.55;4.05;;;9.60;99.90;;;;;;5069251;28;20048;-66
2023/01/05 09:40:50;;;;;;;23.77;3.83;;;9.60;99.90;;;;;;5069374;28;20032;-66
2023/01/05 09:43:26;;;;;;;26.65;3.97;;;9.60;99.90;;;;;;5069637;28;20064;-66
2023/01/05 09:45:53;;;;;;;25.90;4.00;;;9.60;99.90;;;;;;5069268;28;20047;-66
2023/01/05 09:48:19;;;;;;;28.80;4.25;;;9.60;99.90;;;;;;5069256;28;20115;-66
2023/01/05 09:50:48;;;;;;;20.17;4.18;;;9.60;99.90;;;;;;5069404;28;20437;-66
2023/01/05 09:53:17;;;;;;;23.35;3.58;;;9.60;99.90;;;;;;5052714;28;20040;-66
2023/01/05 09:55:46;;;;;;;24.45;5.22;;;9.70;99.90;;;;;;5068884;28;20091;-66
2023/01/05 09:58:26;;;;;;;20.75;3.50;;;9.70;99.90;;;;;;5068961;28;21519;-66
2023/01/05 10:01:14;;;;;;;26.50;4.53;;;9.70;99.90;;;;;;5066790;28;20045;-66
2023/01/05 10:03:53;;;;;;;20.88;3.20;;;9.70;99.90;;;;;;5063288;28;20037;-66
2023/01/05 10:06:24;;;;;;;20.90;3.47;;;9.70;99.90;;;;;;5068621;28;20051;-66
2023/01/05 10:08:50;;;;;;;25.35;4.22;;;9.70;99.90;;;;;;5051863;28;20078;-66
2023/01/05 10:14:37;;;;;;;26.33;4.72;;;9.70;99.90;;;;;;5010924;28;20047;-66
2023/01/05 10:17:11;;;;;;;20.83;3.40;;;9.70;99.90;;;;;;5011276;28;20053;-67
2023/01/05 10:19:37;;;;;;;29.17;4.20;;;9.80;99.90;;;;;;5010904;28;20122;-66
2023/01/05 10:22:31;;;;;;;18.77;3.20;;;9.80;99.90;;;;;;5027937;28;20136;-66
2023/01/05 10:25:08;;;;;;;18.95;3.33;;;9.80;99.90;;;;;;5031671;28;20611;-66
2023/01/05 10:27:43;;;;;;;24.73;3.78;;;9.80;99.90;;;;;;4998500;28;20061;-66
2023/01/05 10:30:25;;;;;;;20.02;3.78;;;9.80;99.90;;;;;;5014985;28;20546;-66
2023/01/05 10:33:20;;;;;;;22.58;3.75;;;9.90;99.90;;;;;;5014609;28;20046;-66
2023/01/05 10:35:54;;;;;;;26.23;4.03;;;9.80;99.90;;;;;;5015084;28;20049;-66
2023/01/05 10:38:26;;;;;;;23.77;4.30;;;9.80;99.90;;;;;;5031801;28;20193;-66
2023/01/05 10:41:03;;;;;;;19.43;3.13;;;9.90;99.90;;;;;;5015022;28;20033;-66
2023/01/05 10:43:44;;;;;;;21.85;2.83;;;9.90;99.90;;;;;;5031495;28;20095;-66
2023/01/05 10:46:11;;;;;;;19.73;5.38;;;9.90;99.90;;;;;;5031527;28;20037;-66
2023/01/05 10:48:38;;;;;;;21.42;3.22;;;10.00;99.90;;;;;;5014808;28;20037;-66
2023/01/05 10:51:06;;;;;;;20.67;3.45;;;10.00;99.90;;;;;;5059283;28;20052;-66
2023/01/05 10:53:35;;;;;;;23.27;3.33;;;10.00;99.90;;;;;;5072136;28;20041;-66
2023/01/05 10:56:05;;;;;;;17.95;3.35;;;10.00;99.90;;;;;;5055338;28;20052;-67
2023/01/05 10:58:39;;;;;;;20.75;3.90;;;10.00;99.90;;;;;;5072125;28;20040;-67
2023/01/05 11:01:27;;;;;;;22.08;4.00;;;10.00;99.90;;;;;;5055575;28;20048;-66
2023/01/05 11:04:18;;;;;;;23.10;3.22;;;10.00;99.90;;;;;;5071925;28;20048;-66
2023/01/05 11:06:45;;;;;;;22.02;3.63;;;10.00;99.90;;;;;;5014624;28;20085;-66
2023/01/05 11:09:17;;;;;;;26.30;5.95;;;10.00;99.90;;;;;;5014483;28;20060;-66
2023/01/05 11:11:55;;;;;;;16.13;3.03;;;10.00;99.90;;;;;;5014548;28;20679;-66
2023/01/05 11:14:22;;;;;;;17.08;3.70;;;10.00;99.90;;;;;;5014515;28;20661;-66
2023/01/05 11:16:54;;;;;;;24.48;3.42;;;10.00;99.90;;;;;;5014372;28;20044;-66
2023/01/05 11:19:30;;;;;;;20.83;5.75;;;10.10;99.90;;;;;;5014404;28;20045;-66
2023/01/05 11:21:56;;;;;;;16.48;3.58;;;10.00;99.90;;;;;;5014365;28;20041;-66
2023/01/05 11:24:24;;;;;;;19.27;3.42;;;10.00;99.90;;;;;;5014407;28;20061;-66
2023/01/05 11:26:52;;;;;;;16.25;2.92;;;10.00;99.90;;;;;;5014660;28;20589;-66
2023/01/05 11:29:18;;;;;;;20.30;3.65;;;10.00;99.90;;;;;;5013502;28;20046;-66
2023/01/05 11:31:55;;;;;;;24.10;4.03;;;10.00;99.90;;;;;;5013664;28;20060;-66
2023/01/05 11:34:42;;;;;;;15.88;2.80;;;10.00;99.90;;;;;;5030309;28;20042;-66
2023/01/05 11:37:10;;;;;;;20.55;3.13;;;10.00;99.90;;;;;;5014009;28;20059;-66
2023/01/05 11:39:46;;;;;;;20.15;3.10;;;10.00;99.90;;;;;;5013884;28;20128;-66
2023/01/05 11:42:12;;;;;;;16.75;3.20;;;10.00;99.90;;;;;;5030727;28;20037;-66
2023/01/05 11:44:40;;;;;;;17.92;4.47;;;10.00;99.90;;;;;;5074880;28;20098;-66
2023/01/05 11:47:07;;;;;;;17.67;3.35;;;10.00;99.90;;;;;;5071408;28;20063;-67
2023/01/05 11:49:33;;;;;;;17.52;3.10;;;10.00;99.90;;;;;;5071039;28;20048;-66
2023/01/05 11:52:02;;;;;;;21.08;3.10;;;9.90;99.90;;;;;;5068262;28;20055;-66
2023/01/05 11:54:37;;;;;;;18.05;3.67;;;9.90;99.90;;;;;;5085968;28;20483;-67
2023/01/05 11:57:15;;;;;;;16.80;3.55;;;9.90;99.90;;;;;;5070681;28;20052;-66
2023/01/05 11:59:42;;;;;;;22.85;4.50;;;9.80;99.90;;;;;;5054131;28;20046;-66
2023/01/05 12:02:17;;;;;;;20.50;3.53;;;9.80;99.90;;;;;;5070549;28;20064;-66
2023/01/05 12:05:23;;;;;;;20.92;4.05;;;9.80;99.90;;;;;;5070517;28;20041;-66
2023/01/05 12:07:58;;;;;;;25.60;3.25;;;9.70;99.90;;;;;;5070608;28;20123;-66
2023/01/05 12:10:44;;;;;;;26.38;3.40;;;9.70;99.90;;;;;;5071713;28;20117;-66
2023/01/05 12:13:27;;;;;;;22.40;2.88;;;9.70;99.90;;;;;;5070462;28;20036;-67
2023/01/05 12:16:18;;;;;;;21.05;3.97;;;9.70;99.90;;;;;;5070402;28;20045;-65
2023/01/05 12:18:53;;;;;;;20.98;3.08;;;9.70;99.90;;;;;;5012662;28;20546;-66
2023/01/05 12:21:24;;;;;;;22.23;3.10;;;9.70;99.90;;;;;;5012916;28;20068;-66
2023/01/05 12:24:13;;;;;;;26.33;4.20;;;9.60;99.90;;;;;;4995946;28;20214;-66
2023/01/05 12:27:06;;;;;;;23.75;4.30;;;9.60;99.90;;;;;;5029242;28;20035;-66
2023/01/05 12:30:00;;;;;;;19.02;3.30;;;9.60;99.90;;;;;;5012908;28;20057;-66
2023/01/05 12:32:52;;;;;;;22.02;3.67;;;9.70;99.90;;;;;;5029945;28;20516;-66
2023/01/05 12:35:36;;;;;;;25.70;3.95;;;9.70;99.90;;;;;;5029451;28;20541;-66
2023/01/05 12:38:21;;;;;;;22.10;4.20;;;9.70;99.90;;;;;;5029954;28;20041;-68
2023/01/05 12:41:08;;;;;;;22.02;3.95;;;9.80;99.90;;;;;;5012494;28;20038;-66
2023/01/05 12:44:29;;;;;;;22.63;4.07;;;9.80;99.90;;;;;;5013778;28;20041;-68
2023/01/05 12:47:23;;;;;;;22.13;4.10;;;9.80;99.90;;;;;;4916819;29;20050;-68
2023/01/05 12:50:01;;;;;;;18.40;3.55;;;9.90;99.90;;;;;;4932010;29;20463;-65
2023/01/05 12:52:31;;;;;;;26.60;4.53;;;9.90;99.90;;;;;;4932065;29;20111;-65
2023/01/05 12:55:20;;;;;;;23.58;4.18;;;9.90;99.90;;;;;;4940711;28;20564;-66
2023/01/05 12:58:07;;;;;;;30.38;3.80;;;9.90;99.90;;;;;;4988095;28;20042;-66
2023/01/05 13:00:36;;;;;;;22.48;4.55;;;9.90;99.90;;;;;;4973401;28;20374;-65
2023/01/05 13:03:12;;;;;;;22.05;3.15;;;9.90;99.90;;;;;;4973652;28;20081;-68
2023/01/05 13:05:56;;;;;;;21.38;3.42;;;9.90;99.90;;;;;;4973155;28;20057;-68
2023/01/05 13:08:49;;;;;;;22.25;3.97;;;10.00;99.90;;;;;;4973411;28;20053;-67
2023/01/05 13:11:34;;;;;;;22.70;3.80;;;9.90;99.90;;;;;;4973140;28;20046;-65
2023/01/05 13:14:10;;;;;;;21.48;3.67;;;9.90;99.90;;;;;;4973285;28;20058;-65
2023/01/05 13:16:40;;;;;;;22.13;3.63;;;9.90;99.90;;;;;;4976788;28;20125;-65
2023/01/05 13:19:11;;;;;;;25.10;3.50;;;9.90;99.90;;;;;;5069506;28;20040;-66
2023/01/05 13:21:43;;;;;;;21.15;3.85;;;9.90;99.90;;;;;;5069689;28;20115;-66
2023/01/05 13:24:16;;;;;;;26.92;5.03;;;9.90;99.90;;;;;;5069524;28;20151;-65
2023/01/05 13:26:42;;;;;;;24.45;4.00;;;9.90;99.90;;;;;;5069425;28;20048;-66
2023/01/05 13:29:35;;;;;;;21.50;3.22;;;9.90;99.90;;;;;;5069400;28;20163;-66
2023/01/05 13:32:03;;;;;;;21.92;3.95;;;9.90;99.90;;;;;;5069455;28;20036;-66
2023/01/05 13:34:58;;;;;;;25.63;4.60;;;9.90;99.90;;;;;;5069560;28;20029;-66
2023/01/05 13:38:06;;;;;;;26.08;3.95;;;9.90;99.90;;;;;;5031880;28;20049;-66
2023/01/05 13:41:02;;;;;;;22.35;3.90;;;9.90;99.90;;;;;;5032044;28;20029;-66